Terminal Aerodrome Forecast
Issued by NWS

Home | Current Version | Previous Version | Text Only | Print | Product List | Glossary On
Versions: 1 2 3 4 5 6 7 8 9 10 11 12
851
FTUS43 KSGF 031721
TAFBBG
TAF
KBBG 031721Z 0318/0418 12008KT P6SM SCT060 OVC100
     FM032300 12006KT 6SM -RA SCT025 OVC050
      TEMPO 0404/0408 5SM -RA BR SCT015 OVC025
     FM040900 12005KT 5SM -RA BR SCT010 OVC020
     FM041500 16005KT 6SM BR SCT008 OVC020=

USA.gov is the U.S. government's official web portal to all federal, state and local government web resources and services.